createdAt,value
2018-08-04T00:00:30.907Z,11.03
2018-08-04T00:02:57.800Z,9.80
2018-08-04T00:05:24.740Z,10.90
2018-08-04T00:07:51.597Z,10.30
2018-08-04T00:10:33.684Z,11.13
2018-08-04T00:13:14.550Z,10.60
2018-08-04T00:15:56.206Z,10.43
2018-08-04T00:18:24.728Z,10.60
2018-08-04T00:20:51.665Z,9.63
2018-08-04T00:23:18.522Z,12.17
2018-08-04T00:25:45.460Z,11.47
2018-08-04T00:28:12.304Z,10.20
2018-08-04T00:30:39.248Z,10.80
2018-08-04T00:33:06.112Z,11.00
2018-08-04T00:35:33.028Z,11.10
2018-08-04T00:37:59.924Z,10.80
2018-08-04T00:40:26.778Z,10.00
2018-08-04T00:42:53.712Z,10.60
2018-08-04T00:45:21.325Z,10.10
2018-08-04T00:47:48.268Z,10.80
2018-08-04T00:50:15.217Z,12.40
2018-08-04T00:52:42.157Z,11.60
2018-08-04T00:55:09.048Z,12.70
2018-08-04T00:57:36.709Z,10.90
2018-08-04T01:00:04.444Z,10.97
2018-08-04T01:02:31.351Z,11.67
2018-08-04T01:04:58.217Z,11.53
2018-08-04T01:07:25.192Z,10.73
2018-08-04T01:09:52.149Z,10.97
2018-08-04T01:12:19.112Z,11.33
2018-08-04T01:14:46.728Z,12.17
2018-08-04T01:17:13.665Z,11.00
2018-08-04T01:19:40.533Z,11.43
2018-08-04T01:22:07.486Z,11.50
2018-08-04T01:24:34.337Z,11.60
2018-08-04T01:27:01.393Z,11.43
2018-08-04T01:29:28.266Z,11.67
2018-08-04T01:31:55.169Z,11.37
2018-08-04T01:34:22.017Z,11.27
2018-08-04T01:36:48.948Z,12.50
2018-08-04T01:39:15.829Z,11.60
2018-08-04T01:41:43.486Z,11.00
2018-08-04T01:44:11.092Z,13.20
2018-08-04T01:46:37.991Z,12.07
2018-08-04T01:49:04.844Z,11.23
2018-08-04T01:51:32.552Z,13.07
2018-08-04T01:53:59.432Z,10.73
2018-08-04T01:56:26.354Z,13.00
2018-08-04T01:58:53.259Z,11.60
2018-08-04T02:01:20.175Z,11.80
2018-08-04T02:03:47.018Z,12.60
2018-08-04T02:06:14.671Z,13.77
2018-08-04T02:08:41.526Z,12.57
2018-08-04T02:11:09.275Z,12.87
2018-08-04T02:13:36.188Z,13.00
2018-08-04T02:16:03.068Z,13.20
2018-08-04T02:18:29.968Z,13.00
2018-08-04T02:20:56.880Z,12.90
2018-08-04T02:23:23.819Z,13.03
2018-08-04T02:25:51.421Z,12.70
2018-08-04T02:28:18.323Z,12.77
2018-08-04T02:30:45.917Z,12.93
2018-08-04T02:33:26.310Z,12.03
2018-08-04T02:35:54.119Z,11.70
2018-08-04T02:38:21.776Z,12.23
2018-08-04T02:40:49.364Z,12.70
2018-08-04T02:43:16.288Z,11.83
2018-08-04T02:45:43.878Z,12.13
2018-08-04T02:48:10.788Z,11.87
2018-08-04T02:50:38.463Z,10.50
2018-08-04T02:53:05.391Z,11.33
2018-08-04T02:55:32.984Z,12.80
2018-08-04T02:57:59.891Z,10.87
2018-08-04T03:00:26.733Z,11.50
2018-08-04T03:02:54.421Z,11.17
2018-08-04T03:05:21.380Z,11.70
2018-08-04T03:07:48.310Z,10.50
2018-08-04T03:10:15.149Z,10.40
2018-08-04T03:12:42.068Z,10.83
2018-08-04T03:15:08.916Z,11.37
2018-08-04T03:17:35.816Z,10.90
2018-08-04T03:20:02.726Z,10.60
2018-08-04T03:22:30.394Z,9.90
2018-08-04T03:24:57.992Z,11.67
2018-08-04T03:27:24.921Z,12.43
2018-08-04T03:29:51.763Z,17.30
2018-08-04T03:32:18.686Z,13.43
2018-08-04T03:34:45.558Z,13.10
2018-08-04T03:37:12.470Z,11.80
2018-08-04T03:39:40.158Z,12.30
2018-08-04T03:42:07.009Z,13.57
2018-08-04T03:44:33.948Z,13.43
2018-08-04T03:47:00.799Z,13.50
2018-08-04T03:49:27.700Z,12.90
2018-08-04T03:51:54.625Z,12.73
2018-08-04T03:54:21.522Z,12.47
2018-08-04T03:56:48.440Z,12.50
2018-08-04T03:59:15.350Z,12.83
2018-08-04T04:01:42.290Z,11.20
2018-08-04T04:04:09.209Z,11.93
2018-08-04T04:06:36.111Z,11.30
2018-08-04T04:09:03.237Z,10.87
2018-08-04T04:11:30.121Z,12.53
2018-08-04T04:13:57.032Z,11.13
2018-08-04T04:16:23.891Z,11.07
2018-08-04T04:18:51.161Z,13.67
2018-08-04T04:21:18.797Z,11.83
2018-08-04T04:23:45.724Z,11.70
2018-08-04T04:26:14.099Z,13.07
2018-08-04T04:28:41.025Z,12.07
2018-08-04T04:31:07.888Z,12.73
2018-08-04T04:33:34.849Z,13.70
2018-08-04T04:36:01.734Z,11.77
2018-08-04T04:38:28.644Z,12.63
2018-08-04T04:40:55.504Z,12.33
2018-08-04T04:43:23.161Z,12.13
2018-08-04T04:45:50.012Z,13.23
2018-08-04T04:48:16.883Z,14.17
2018-08-04T04:50:43.800Z,13.93
2018-08-04T04:53:11.452Z,15.03
2018-08-04T04:55:38.369Z,13.97
2018-08-04T04:58:05.283Z,14.70
2018-08-04T05:00:32.253Z,16.10
2018-08-04T05:02:59.125Z,16.40
2018-08-04T05:05:26.036Z,14.43
2018-08-04T05:07:52.912Z,14.27
2018-08-04T05:10:19.824Z,14.23
2018-08-04T05:12:46.668Z,13.37
2018-08-04T05:15:13.617Z,14.20
2018-08-04T05:17:40.548Z,14.20
2018-08-04T05:20:07.520Z,13.40
2018-08-04T05:22:34.372Z,13.60
2018-08-04T05:25:01.329Z,13.70
2018-08-04T05:27:28.192Z,14.10
2018-08-04T05:29:55.145Z,15.03
2018-08-04T05:32:22.013Z,14.57
2018-08-04T05:34:49.685Z,13.90
2018-08-04T05:37:16.597Z,14.17
2018-08-04T05:39:43.512Z,15.40
2018-08-04T05:42:10.404Z,17.63
2018-08-04T05:44:37.323Z,21.77
2018-08-04T05:47:04.228Z,16.53
2018-08-04T05:49:31.138Z,15.87
2018-08-04T05:51:58.787Z,17.50
2018-08-04T05:54:25.707Z,18.27
2018-08-04T05:56:52.580Z,17.10
2018-08-04T05:59:20.244Z,17.77
2018-08-04T06:01:47.112Z,16.90
2018-08-04T06:04:14.020Z,16.80
2018-08-04T06:06:40.911Z,17.47
2018-08-04T06:09:07.815Z,17.50
2018-08-04T06:11:34.669Z,17.67
2018-08-04T06:14:01.569Z,17.23
2018-08-04T06:16:28.531Z,18.10
2018-08-04T06:18:55.383Z,21.63
2018-08-04T06:21:22.321Z,18.50
2018-08-04T06:23:49.205Z,17.33
2018-08-04T06:26:16.872Z,17.63
2018-08-04T06:28:44.464Z,17.03
2018-08-04T06:31:11.386Z,17.07
2018-08-04T06:33:38.232Z,17.33
2018-08-04T06:36:05.155Z,17.60
2018-08-04T06:38:32.760Z,16.97
2018-08-04T06:40:59.694Z,16.87
2018-08-04T06:43:26.571Z,17.87
2018-08-04T06:45:53.485Z,18.00
2018-08-04T06:48:20.369Z,18.10
2018-08-04T06:50:47.309Z,17.97
2018-08-04T06:53:14.172Z,18.17
2018-08-04T06:55:41.088Z,19.13
2018-08-04T06:58:07.972Z,18.20
2018-08-04T07:00:35.732Z,22.20
2018-08-04T07:03:02.612Z,20.00
2018-08-04T07:05:29.561Z,19.97
2018-08-04T07:07:56.512Z,19.17
2018-08-04T07:10:23.428Z,19.27
2018-08-04T07:12:51.124Z,21.00
2018-08-04T07:15:18.039Z,21.20
2018-08-04T07:17:44.891Z,17.80
2018-08-04T07:20:11.807Z,17.97
2018-08-04T07:22:38.691Z,17.17
2018-08-04T07:25:05.652Z,17.13
2018-08-04T07:27:32.497Z,16.50
2018-08-04T07:30:13.561Z,16.27
2018-08-04T07:35:38.216Z,16.90
2018-08-04T07:38:16.033Z,16.50
2018-08-04T07:40:44.215Z,15.83
2018-08-04T07:43:11.095Z,17.07
2018-08-04T07:45:38.045Z,14.60
2018-08-04T07:48:04.928Z,15.73
2018-08-04T07:50:31.870Z,17.00
2018-08-04T07:53:11.130Z,16.57
2018-08-04T07:55:39.295Z,18.00
2018-08-04T07:58:06.920Z,15.73
2018-08-04T08:00:33.848Z,17.30
2018-08-04T08:03:14.294Z,17.97
2018-08-04T08:05:58.267Z,17.20
2018-08-04T08:08:41.036Z,17.33
2018-08-04T08:11:23.090Z,16.73
2018-08-04T08:13:51.057Z,19.20
2018-08-04T08:16:17.976Z,19.00
2018-08-04T08:18:45.582Z,17.30
2018-08-04T08:21:12.512Z,17.53
2018-08-04T08:23:39.369Z,16.40
2018-08-04T08:26:06.393Z,18.17
2018-08-04T08:28:33.261Z,16.60
2018-08-04T08:31:00.235Z,17.30
2018-08-04T08:33:27.116Z,16.97
2018-08-04T08:35:54.108Z,17.53
2018-08-04T08:38:20.969Z,17.20
2018-08-04T08:41:02.183Z,16.57
2018-08-04T08:43:42.983Z,17.67
2018-08-04T08:49:07.988Z,16.23
2018-08-04T08:51:49.642Z,16.63
2018-08-04T08:57:09.455Z,15.53
2018-08-04T08:59:47.278Z,16.33
2018-08-04T09:02:21.919Z,15.53
2018-08-04T09:04:51.728Z,15.50
2018-08-04T09:07:33.489Z,16.40
2018-08-04T09:10:15.722Z,14.43
2018-08-04T09:12:43.453Z,17.40
2018-08-04T09:15:24.783Z,15.67
2018-08-04T09:18:02.061Z,16.20
2018-08-04T09:20:41.889Z,15.10
2018-08-04T09:26:03.562Z,16.20
2018-08-04T09:28:31.438Z,15.60
2018-08-04T09:30:58.622Z,15.53
2018-08-04T09:33:35.167Z,16.00
2018-08-04T09:36:15.118Z,15.17
2018-08-04T09:38:47.647Z,15.80
2018-08-04T09:41:25.461Z,14.87
2018-08-04T09:44:07.661Z,15.23
2018-08-04T09:46:48.492Z,14.47
2018-08-04T09:49:27.983Z,16.00
2018-08-04T09:52:09.556Z,17.43
2018-08-04T09:54:48.537Z,17.70
2018-08-04T09:59:56.113Z,16.57
2018-08-04T10:02:23.152Z,15.10
2018-08-04T10:04:50.756Z,18.20
2018-08-04T10:07:17.720Z,15.50
2018-08-04T10:09:44.637Z,16.90
2018-08-04T10:12:11.557Z,15.93
2018-08-04T10:14:38.456Z,17.03
2018-08-04T10:17:05.393Z,15.73
2018-08-04T10:19:32.262Z,15.07
2018-08-04T10:21:59.222Z,15.87
2018-08-04T10:24:26.821Z,16.00
2018-08-04T10:26:53.696Z,15.17
2018-08-04T10:29:20.607Z,15.43
2018-08-04T10:31:47.460Z,15.27
2018-08-04T10:34:14.383Z,14.37
2018-08-04T10:36:41.434Z,16.57
2018-08-04T10:39:08.373Z,16.27
2018-08-04T10:41:35.309Z,15.47
2018-08-04T10:44:03.090Z,16.33
2018-08-04T10:46:29.989Z,16.17
2018-08-04T10:48:56.900Z,14.80
2018-08-04T10:51:23.781Z,15.90
2018-08-04T10:53:50.788Z,13.67
2018-08-04T10:56:17.672Z,13.63
2018-08-04T10:58:44.580Z,13.50
2018-08-04T11:01:11.444Z,12.20
2018-08-04T11:03:38.409Z,14.30
2018-08-04T11:06:05.290Z,15.40
2018-08-04T11:08:32.217Z,16.23
2018-08-04T11:10:59.118Z,14.90
2018-08-04T11:13:26.037Z,14.57
2018-08-04T11:15:52.958Z,14.17
2018-08-04T11:18:20.613Z,13.60
2018-08-04T11:20:48.233Z,13.47
2018-08-04T11:23:15.152Z,12.30
2018-08-04T11:25:42.051Z,13.43
2018-08-04T11:28:08.966Z,12.93
2018-08-04T11:30:35.842Z,13.33
2018-08-04T11:33:02.832Z,12.57
2018-08-04T11:35:29.688Z,25.27
2018-08-04T11:37:56.635Z,14.63
2018-08-04T11:40:23.516Z,13.90
2018-08-04T11:42:50.420Z,13.90
2018-08-04T11:45:17.255Z,14.37
2018-08-04T11:47:44.174Z,13.90
2018-08-04T11:50:11.055Z,14.63
2018-08-04T11:52:37.913Z,14.50
2018-08-04T11:55:04.898Z,13.93
2018-08-04T11:57:32.496Z,13.30
2018-08-04T11:59:59.392Z,13.63
2018-08-04T12:02:26.256Z,13.90
2018-08-04T12:04:53.956Z,12.60
2018-08-04T12:07:20.835Z,13.80
2018-08-04T12:09:47.771Z,12.47
2018-08-04T12:12:14.653Z,13.20
2018-08-04T12:14:42.376Z,13.70
2018-08-04T12:17:09.264Z,13.50
2018-08-04T12:19:36.932Z,13.07
2018-08-04T12:22:04.593Z,12.37
2018-08-04T12:24:31.494Z,11.13
2018-08-04T12:26:58.344Z,13.43
2018-08-04T12:29:25.265Z,13.07
2018-08-04T12:31:52.136Z,11.77
2018-08-04T12:34:19.024Z,13.40
2018-08-04T12:36:45.930Z,13.17
2018-08-04T12:39:12.839Z,12.30
2018-08-04T12:41:39.710Z,12.70
2018-08-04T12:44:06.679Z,13.73
2018-08-04T12:46:34.344Z,12.87
2018-08-04T12:49:02.010Z,13.30
2018-08-04T12:51:29.673Z,11.87
2018-08-04T12:53:57.349Z,11.77
2018-08-04T12:56:24.211Z,11.37
2018-08-04T12:58:51.136Z,12.87
2018-08-04T13:01:18.848Z,12.80
2018-08-04T13:03:45.775Z,14.80
2018-08-04T13:06:12.641Z,13.53
2018-08-04T13:08:39.560Z,14.03
2018-08-04T13:11:06.436Z,13.60
2018-08-04T13:13:33.313Z,12.83
2018-08-04T13:16:00.289Z,13.07
2018-08-04T13:18:27.132Z,14.63
2018-08-04T13:20:54.035Z,12.63
2018-08-04T13:23:20.965Z,13.30
2018-08-04T13:25:48.661Z,12.13
2018-08-04T13:28:16.275Z,12.43
2018-08-04T13:30:43.192Z,12.13
2018-08-04T13:33:10.052Z,12.33
2018-08-04T13:35:36.961Z,13.30
2018-08-04T13:38:04.620Z,13.53
2018-08-04T13:40:31.544Z,14.03
2018-08-04T13:42:58.480Z,13.30
2018-08-04T13:45:25.412Z,12.60
2018-08-04T13:47:52.255Z,13.63
2018-08-04T13:50:19.246Z,13.47
2018-08-04T13:52:46.065Z,14.57
2018-08-04T13:55:12.982Z,12.00
2018-08-04T13:57:39.848Z,14.07
2018-08-04T14:00:06.816Z,12.70
2018-08-04T14:02:34.408Z,14.03
2018-08-04T14:05:01.349Z,12.07
2018-08-04T14:07:28.203Z,14.57
2018-08-04T14:09:55.136Z,14.30
2018-08-04T14:12:22.006Z,13.83
2018-08-04T14:14:48.973Z,14.27
2018-08-04T14:17:15.876Z,13.67
2018-08-04T14:19:42.781Z,13.17
2018-08-04T14:22:09.668Z,12.60
2018-08-04T14:24:36.573Z,13.93
2018-08-04T14:27:04.177Z,15.10
2018-08-04T14:29:31.096Z,13.33
2018-08-04T14:31:58.752Z,13.87
2018-08-04T14:34:26.365Z,13.07
2018-08-04T14:36:53.284Z,14.17
2018-08-04T14:39:20.173Z,11.70
2018-08-04T14:41:47.079Z,13.37
2018-08-04T14:44:13.925Z,13.37
2018-08-04T14:46:40.863Z,12.13
2018-08-04T14:49:07.711Z,12.20
2018-08-04T14:51:34.639Z,13.00
2018-08-04T14:54:01.505Z,12.97
2018-08-04T14:56:28.411Z,13.10
2018-08-04T14:58:55.266Z,12.33
2018-08-04T15:01:22.904Z,21.03
2018-08-04T15:03:49.764Z,12.33
2018-08-04T15:06:16.673Z,11.60
2018-08-04T15:08:43.521Z,12.10
2018-08-04T15:11:10.445Z,11.90
2018-08-04T15:13:37.296Z,13.17
2018-08-04T15:16:04.292Z,13.40
2018-08-04T15:18:31.889Z,11.87
2018-08-04T15:20:58.829Z,14.27
2018-08-04T15:23:25.683Z,12.80
2018-08-04T15:25:52.632Z,12.27
2018-08-04T15:28:19.484Z,12.07
2018-08-04T15:30:47.236Z,12.90
2018-08-04T15:33:14.188Z,13.00
2018-08-04T15:35:41.194Z,12.33
2018-08-04T15:38:18.050Z,13.87
2018-08-04T15:40:44.992Z,13.67
2018-08-04T15:43:11.853Z,13.17
2018-08-04T15:45:38.757Z,14.00
2018-08-04T15:48:05.757Z,14.07
2018-08-04T15:50:33.335Z,11.63
2018-08-04T15:53:00.265Z,13.97
2018-08-04T15:55:27.126Z,13.00
2018-08-04T15:57:54.053Z,12.97
2018-08-04T16:00:20.897Z,12.87
2018-08-04T16:02:47.878Z,13.50
2018-08-04T16:05:14.750Z,13.53
2018-08-04T16:07:41.692Z,13.27
2018-08-04T16:10:08.564Z,14.20
2018-08-04T16:12:36.208Z,12.23
2018-08-04T16:15:03.271Z,12.60
2018-08-04T16:17:30.899Z,13.43
2018-08-04T16:19:57.769Z,13.53
2018-08-04T16:22:24.671Z,12.83
2018-08-04T16:24:51.631Z,14.53
2018-08-04T16:27:18.549Z,13.83
2018-08-04T16:29:45.387Z,12.37
2018-08-04T16:32:12.310Z,12.10
2018-08-04T16:34:39.893Z,12.47
2018-08-04T16:37:06.800Z,13.17
2018-08-04T16:39:33.660Z,11.27
2018-08-04T16:42:01.403Z,11.53
2018-08-04T16:44:28.246Z,11.47
2018-08-04T16:46:55.157Z,12.07
2018-08-04T16:49:22.037Z,11.37
2018-08-04T16:51:48.990Z,12.23
2018-08-04T16:54:15.901Z,12.33
2018-08-04T16:56:42.755Z,11.50
2018-08-04T16:59:09.664Z,11.80
2018-08-04T17:01:36.516Z,12.00
2018-08-04T17:04:03.485Z,11.60
2018-08-04T17:06:30.419Z,13.90
2018-08-04T17:08:57.327Z,11.93
2018-08-04T17:11:24.260Z,13.03
2018-08-04T17:13:52.103Z,12.10
2018-08-04T17:16:18.967Z,13.30
2018-08-04T17:18:46.683Z,13.20
2018-08-04T17:21:13.524Z,11.90
2018-08-04T17:23:40.436Z,10.60
2018-08-04T17:26:07.316Z,10.93
2018-08-04T17:28:34.250Z,10.23
2018-08-04T17:31:01.138Z,11.40
2018-08-04T17:33:28.049Z,11.57
2018-08-04T17:35:55.965Z,12.27
2018-08-04T17:38:22.930Z,11.70
2018-08-04T17:40:49.804Z,12.10
2018-08-04T17:43:16.748Z,12.63
2018-08-04T17:45:43.651Z,12.60
2018-08-04T17:48:10.629Z,12.87
2018-08-04T17:50:37.527Z,13.53
2018-08-04T17:53:04.502Z,13.00
2018-08-04T17:55:32.125Z,14.90
2018-08-04T17:57:59.097Z,14.47
2018-08-04T18:00:25.957Z,14.03
2018-08-04T18:02:52.892Z,11.80
2018-08-04T18:05:19.762Z,10.40
2018-08-04T18:07:47.772Z,9.17
2018-08-04T18:10:14.777Z,8.60
2018-08-04T18:12:41.708Z,10.13
2018-08-04T18:15:08.572Z,9.50
2018-08-04T18:17:37.158Z,10.37
2018-08-04T18:20:04.184Z,11.13
2018-08-04T18:22:31.809Z,11.57
2018-08-04T18:24:58.716Z,12.80
2018-08-04T18:27:25.567Z,12.50
2018-08-04T18:29:52.536Z,11.13
2018-08-04T18:32:19.391Z,11.73
2018-08-04T18:34:46.345Z,10.50
2018-08-04T18:37:13.197Z,11.00
2018-08-04T18:39:40.113Z,11.93
2018-08-04T18:42:06.995Z,12.87
2018-08-04T18:44:33.940Z,11.40
2018-08-04T18:47:01.549Z,10.10
2018-08-04T18:49:28.485Z,11.00
2018-08-04T18:51:55.339Z,10.93
2018-08-04T18:54:22.257Z,10.80
2018-08-04T18:56:49.168Z,11.80
2018-08-04T18:59:16.145Z,13.60
2018-08-04T19:01:42.996Z,15.73
2018-08-04T19:04:09.914Z,16.33
2018-08-04T19:06:36.776Z,13.13
2018-08-04T19:09:03.849Z,10.73
2018-08-04T19:11:30.763Z,9.67
2018-08-04T19:13:58.424Z,8.03
2018-08-04T19:16:26.139Z,7.60
2018-08-04T19:18:53.085Z,7.83
2018-08-04T19:21:20.072Z,7.90
2018-08-04T19:23:47.048Z,8.00
2018-08-04T19:26:13.885Z,7.33
2018-08-04T19:28:40.855Z,8.33
2018-08-04T19:31:07.701Z,7.73
2018-08-04T19:33:34.615Z,6.97
2018-08-04T19:38:34.992Z,7.00
2018-08-04T19:41:01.865Z,7.57
2018-08-04T19:43:28.776Z,8.17
2018-08-04T19:45:55.649Z,7.87
2018-08-04T19:48:22.512Z,7.57
2018-08-04T19:50:49.450Z,9.17
2018-08-04T19:53:16.311Z,8.23
2018-08-04T19:55:44.021Z,9.33
2018-08-04T19:58:10.849Z,8.70
2018-08-04T20:00:37.788Z,8.93
2018-08-04T20:03:04.660Z,8.60
2018-08-04T20:05:31.563Z,7.63
2018-08-04T20:07:59.152Z,8.63
2018-08-04T20:10:26.066Z,8.47
2018-08-04T20:12:53.717Z,8.90
2018-08-04T20:15:20.661Z,8.63
2018-08-04T20:17:47.511Z,7.90
2018-08-04T20:20:14.449Z,7.77
2018-08-04T20:22:41.296Z,8.63
2018-08-04T20:25:08.221Z,7.10
2018-08-04T20:27:35.090Z,7.73
2018-08-04T20:30:02.837Z,6.77
2018-08-04T20:32:29.735Z,6.60
2018-08-04T20:34:56.719Z,7.27
2018-08-04T20:37:23.594Z,7.10
2018-08-04T20:39:51.248Z,6.53
2018-08-04T20:42:18.114Z,6.57
2018-08-04T20:44:45.121Z,6.90
2018-08-04T20:47:12.043Z,6.63
2018-08-04T20:49:38.953Z,6.07
2018-08-04T20:52:05.844Z,6.53
2018-08-04T20:54:32.773Z,6.80
2018-08-04T20:56:59.708Z,5.70
2018-08-04T20:59:26.612Z,6.20
2018-08-04T21:01:53.557Z,4.63
2018-08-04T21:04:21.217Z,5.73
2018-08-04T21:06:48.094Z,4.50
2018-08-04T21:09:15.020Z,6.30
2018-08-04T21:11:42.792Z,4.93
2018-08-04T21:14:09.668Z,4.47
2018-08-04T21:16:36.586Z,5.47
2018-08-04T21:19:03.451Z,4.13
2018-08-04T21:21:30.457Z,3.80
2018-08-04T21:23:57.309Z,3.60
2018-08-04T21:26:25.017Z,4.03
2018-08-04T21:28:51.868Z,3.97
2018-08-04T21:31:18.802Z,4.10
2018-08-04T21:33:45.669Z,9.20
2018-08-04T21:36:12.617Z,4.93
2018-08-04T21:38:39.470Z,4.73
2018-08-04T21:41:06.408Z,3.43
2018-08-04T21:43:33.288Z,3.53
2018-08-04T21:46:00.957Z,3.20
2018-08-04T21:48:27.818Z,3.77
2018-08-04T21:50:54.737Z,4.40
2018-08-04T21:53:22.339Z,5.67
2018-08-04T21:55:49.323Z,3.50
2018-08-04T21:58:16.196Z,5.23
2018-08-04T22:00:44.009Z,3.27
2018-08-04T22:03:10.908Z,3.50
2018-08-04T22:05:38.557Z,5.27
2018-08-04T22:08:28.878Z,4.90
2018-08-04T22:10:55.805Z,4.10
2018-08-04T22:13:23.465Z,3.10
2018-08-04T22:15:51.121Z,3.37
2018-08-04T22:18:18.720Z,3.50
2018-08-04T22:20:45.637Z,4.67
2018-08-04T22:23:13.225Z,3.13
2018-08-04T22:25:40.130Z,4.03
2018-08-04T22:28:07.733Z,3.20
2018-08-04T22:30:34.669Z,2.97
2018-08-04T22:33:01.573Z,3.33
2018-08-04T22:35:28.496Z,3.20
2018-08-04T22:37:55.369Z,3.73
2018-08-04T22:40:23.085Z,3.30
2018-08-04T22:42:49.954Z,3.57
2018-08-04T22:45:26.016Z,3.40
2018-08-04T22:47:52.881Z,3.40
2018-08-04T22:50:20.473Z,3.70
2018-08-04T22:52:47.381Z,3.20
2018-08-04T22:55:14.225Z,3.30
2018-08-04T22:57:41.149Z,3.27
2018-08-04T23:00:08.002Z,3.70
2018-08-04T23:02:34.976Z,2.87
2018-08-04T23:05:02.608Z,3.67
2018-08-04T23:07:29.512Z,3.23
2018-08-04T23:09:56.372Z,3.37
2018-08-04T23:12:23.333Z,5.33
2018-08-04T23:14:50.244Z,4.13
2018-08-04T23:17:17.145Z,3.80
2018-08-04T23:19:43.988Z,3.97
2018-08-04T23:22:10.925Z,3.93
2018-08-04T23:24:37.771Z,3.70
2018-08-04T23:27:04.688Z,3.90
2018-08-04T23:29:31.527Z,4.03
2018-08-04T23:31:58.425Z,3.63
2018-08-04T23:34:26.011Z,4.07
2018-08-04T23:36:52.939Z,3.87
2018-08-04T23:39:20.540Z,3.57
2018-08-04T23:41:47.447Z,3.77
2018-08-04T23:44:14.332Z,3.40
2018-08-04T23:46:41.258Z,3.33
2018-08-04T23:49:08.096Z,3.30
2018-08-04T23:51:35.068Z,3.53
2018-08-04T23:54:01.989Z,3.90
2018-08-04T23:56:28.964Z,3.50
2018-08-04T23:58:55.810Z,3.00
